createdAt,value
2018-05-25T00:00:49.811Z,90.40
2018-05-25T00:03:17.369Z,90.00
2018-05-25T00:05:44.981Z,89.40
2018-05-25T00:08:12.528Z,88.90
2018-05-25T00:10:40.843Z,88.90
2018-05-25T00:13:08.424Z,88.90
2018-05-25T00:15:35.988Z,89.20
2018-05-25T00:18:03.544Z,89.40
2018-05-25T00:20:31.126Z,90.00
2018-05-25T00:22:58.691Z,90.20
2018-05-25T00:25:26.258Z,90.30
2018-05-25T00:27:53.851Z,90.50
2018-05-25T00:30:21.404Z,91.20
2018-05-25T00:32:49.735Z,91.10
2018-05-25T00:35:17.317Z,91.10
2018-05-25T00:37:44.875Z,91.30
2018-05-25T00:40:12.433Z,91.70
2018-05-25T00:42:40.029Z,91.90
2018-05-25T00:45:07.590Z,92.10
2018-05-25T00:47:35.376Z,92.30
2018-05-25T00:50:03.466Z,92.60
2018-05-25T00:52:31.025Z,92.70
2018-05-25T00:55:35.345Z,92.80
2018-05-25T00:58:02.900Z,92.90
2018-05-25T01:00:30.455Z,93.40
2018-05-25T01:02:58.045Z,93.10
2018-05-25T01:05:25.605Z,93.20
2018-05-25T01:07:53.176Z,93.20
2018-05-25T01:10:22.464Z,93.20
2018-05-25T01:12:50.016Z,93.20
2018-05-25T01:15:17.578Z,93.40
2018-05-25T01:17:45.159Z,93.40
2018-05-25T01:20:12.711Z,93.10
2018-05-25T01:22:40.273Z,93.40
2018-05-25T01:25:07.859Z,93.10
2018-05-25T01:27:35.422Z,93.10
2018-05-25T01:30:02.985Z,93.10
2018-05-25T01:32:30.620Z,93.20
2018-05-25T01:34:58.173Z,93.20
2018-05-25T01:37:25.727Z,93.20
2018-05-25T01:39:53.310Z,93.20
2018-05-25T01:42:20.870Z,93.30
2018-05-25T01:44:48.430Z,93.40
2018-05-25T01:47:16.017Z,93.40
2018-05-25T01:49:43.577Z,93.30
2018-05-25T01:52:11.130Z,93.40
2018-05-25T01:54:38.719Z,93.20
2018-05-25T01:57:07.040Z,93.20
2018-05-25T01:59:34.599Z,93.20
2018-05-25T02:02:02.189Z,93.00
2018-05-25T02:04:29.745Z,93.00
2018-05-25T02:06:57.303Z,93.10
2018-05-25T02:09:24.895Z,93.10
2018-05-25T02:11:53.221Z,93.50
2018-05-25T02:14:20.781Z,93.20
2018-05-25T02:16:48.872Z,93.20
2018-05-25T02:19:16.435Z,93.20
2018-05-25T02:21:44.001Z,93.20
2018-05-25T02:24:11.592Z,93.30
2018-05-25T02:26:39.915Z,93.80
2018-05-25T02:29:07.464Z,93.70
2018-05-25T02:31:35.052Z,93.40
2018-05-25T02:34:02.614Z,93.30
2018-05-25T02:36:30.174Z,93.30
2018-05-25T02:38:57.780Z,93.10
2018-05-25T02:41:25.390Z,93.00
2018-05-25T02:43:52.948Z,93.00
2018-05-25T02:46:20.546Z,93.10
2018-05-25T02:48:48.103Z,93.10
2018-05-25T02:51:15.660Z,93.20
2018-05-25T02:53:43.247Z,93.50
2018-05-25T02:56:11.619Z,93.40
2018-05-25T02:58:39.136Z,93.30
2018-05-25T03:01:07.319Z,93.30
2018-05-25T03:03:34.872Z,93.40
2018-05-25T03:06:02.432Z,93.30
2018-05-25T03:08:30.016Z,93.30
2018-05-25T03:10:57.578Z,93.30
2018-05-25T03:13:26.514Z,93.30
2018-05-25T03:15:55.147Z,93.00
2018-05-25T03:18:22.702Z,93.00
2018-05-25T03:20:50.259Z,93.00
2018-05-25T03:23:17.871Z,93.10
2018-05-25T03:25:46.198Z,93.30
2018-05-25T03:28:13.791Z,93.30
2018-05-25T03:30:41.378Z,93.50
2018-05-25T03:33:09.700Z,93.90
2018-05-25T03:35:37.259Z,93.80
2018-05-25T03:38:04.847Z,93.50
2018-05-25T03:40:32.402Z,93.40
2018-05-25T03:42:59.956Z,93.50
2018-05-25T03:45:27.593Z,93.50
2018-05-25T03:47:55.150Z,93.50
2018-05-25T03:50:22.705Z,93.60
2018-05-25T03:52:50.299Z,93.60
2018-05-25T03:55:17.858Z,93.70
2018-05-25T03:57:45.416Z,93.70
2018-05-25T04:00:50.673Z,93.70
2018-05-25T04:03:18.246Z,93.70
2018-05-25T04:05:45.806Z,93.70
2018-05-25T04:08:13.395Z,93.90
2018-05-25T04:10:41.733Z,93.30
2018-05-25T04:13:09.288Z,93.30
2018-05-25T04:15:36.877Z,93.30
2018-05-25T04:18:04.434Z,93.30
2018-05-25T04:20:31.988Z,93.20
2018-05-25T04:22:59.608Z,93.30
2018-05-25T04:25:27.160Z,93.40
2018-05-25T04:27:54.721Z,93.10
2018-05-25T04:30:22.314Z,92.90
2018-05-25T04:32:49.898Z,92.80
2018-05-25T04:35:17.451Z,92.90
2018-05-25T04:37:45.043Z,92.90
2018-05-25T04:40:12.594Z,93.00
2018-05-25T04:42:40.178Z,93.20
2018-05-25T04:45:07.755Z,93.00
2018-05-25T04:47:35.350Z,93.00
2018-05-25T04:50:02.916Z,93.00
2018-05-25T04:52:30.555Z,93.10
2018-05-25T04:54:58.838Z,93.60
2018-05-25T04:57:26.402Z,93.20
2018-05-25T04:59:54.033Z,93.30
2018-05-25T05:02:21.613Z,93.30
2018-05-25T05:04:49.198Z,93.30
2018-05-25T05:07:16.827Z,93.30
2018-05-25T05:09:44.391Z,93.30
2018-05-25T05:12:11.973Z,93.30
2018-05-25T05:14:39.577Z,93.30
2018-05-25T05:17:07.147Z,93.30
2018-05-25T05:19:35.475Z,93.50
2018-05-25T05:22:03.066Z,93.40
2018-05-25T05:24:30.624Z,93.30
2018-05-25T05:26:58.188Z,93.30
2018-05-25T05:29:25.777Z,93.30
2018-05-25T05:31:54.113Z,93.10
2018-05-25T05:34:21.668Z,93.10
2018-05-25T05:36:50.552Z,93.30
2018-05-25T05:39:18.112Z,93.00
2018-05-25T05:41:45.663Z,92.90
2018-05-25T05:44:13.259Z,92.90
2018-05-25T05:46:40.814Z,93.00
2018-05-25T05:49:08.373Z,92.90
2018-05-25T05:51:36.446Z,93.00
2018-05-25T05:54:03.995Z,93.00
2018-05-25T05:56:31.548Z,92.60
2018-05-25T05:58:59.945Z,92.50
2018-05-25T06:01:27.530Z,92.60
2018-05-25T06:03:55.089Z,92.60
2018-05-25T06:06:22.696Z,92.50
2018-05-25T06:08:50.253Z,92.40
2018-05-25T06:11:18.046Z,92.20
2018-05-25T06:13:46.844Z,92.30
2018-05-25T06:16:14.436Z,92.00
2018-05-25T06:18:41.991Z,92.10
2018-05-25T06:21:09.606Z,92.10
2018-05-25T06:23:37.160Z,92.00
2018-05-25T06:26:04.715Z,91.80
2018-05-25T06:28:32.360Z,91.50
2018-05-25T06:30:59.945Z,91.50
2018-05-25T06:33:27.460Z,91.50
2018-05-25T06:35:55.068Z,91.50
2018-05-25T06:38:22.622Z,91.50
2018-05-25T06:40:50.183Z,91.50
2018-05-25T06:43:17.788Z,91.20
2018-05-25T06:45:45.383Z,91.20
2018-05-25T06:48:12.904Z,91.20
2018-05-25T06:50:40.516Z,91.30
2018-05-25T06:53:08.051Z,91.30
2018-05-25T06:55:35.597Z,91.30
2018-05-25T06:58:03.277Z,91.30
2018-05-25T07:00:30.764Z,91.30
2018-05-25T07:02:59.094Z,90.80
2018-05-25T07:05:26.704Z,90.80
2018-05-25T07:07:55.026Z,91.00
2018-05-25T07:10:22.578Z,91.00
2018-05-25T07:12:50.213Z,90.70
2018-05-25T07:15:17.795Z,90.60
2018-05-25T07:17:45.351Z,90.50
2018-05-25T07:20:12.967Z,90.70
2018-05-25T07:22:42.147Z,90.60
2018-05-25T07:25:10.400Z,90.60
2018-05-25T07:27:38.046Z,90.60
2018-05-25T07:30:05.616Z,90.60
2018-05-25T07:32:33.169Z,90.60
2018-05-25T07:35:00.813Z,90.60
2018-05-25T07:37:28.367Z,90.70
2018-05-25T07:39:56.693Z,90.80
2018-05-25T07:42:24.328Z,90.50
2018-05-25T07:44:51.885Z,90.40
2018-05-25T07:47:19.469Z,90.40
2018-05-25T07:49:47.118Z,90.30
2018-05-25T07:52:15.020Z,90.20
2018-05-25T07:54:42.580Z,90.20
2018-05-25T07:57:10.180Z,90.20
2018-05-25T07:59:37.825Z,90.10
2018-05-25T08:02:05.372Z,90.00
2018-05-25T08:07:05.835Z,90.00
2018-05-25T08:09:33.402Z,90.00
2018-05-25T08:12:01.162Z,90.00
2018-05-25T08:14:28.635Z,89.80
2018-05-25T08:16:56.187Z,90.00
2018-05-25T08:19:23.837Z,89.70
2018-05-25T08:21:51.414Z,89.60
2018-05-25T08:24:18.983Z,89.20
2018-05-25T08:26:47.778Z,89.10
2018-05-25T08:29:15.741Z,88.90
2018-05-25T08:31:43.252Z,88.10
2018-05-25T08:34:10.897Z,88.00
2018-05-25T08:36:38.457Z,87.90
2018-05-25T08:39:06.158Z,87.70
2018-05-25T08:41:34.225Z,87.40
2018-05-25T08:44:01.905Z,87.50
2018-05-25T08:46:29.866Z,87.50
2018-05-25T08:48:57.472Z,87.00
2018-05-25T08:51:25.035Z,86.60
2018-05-25T08:53:53.366Z,86.30
2018-05-25T08:56:21.950Z,86.30
2018-05-25T08:58:49.530Z,86.20
2018-05-25T09:01:17.144Z,86.00
2018-05-25T09:03:45.262Z,85.70
2018-05-25T09:06:12.827Z,85.60
2018-05-25T09:08:40.385Z,84.90
2018-05-25T09:11:07.999Z,84.40
2018-05-25T09:13:35.563Z,84.40
2018-05-25T09:16:03.134Z,84.40
2018-05-25T09:18:30.786Z,84.20
2018-05-25T09:20:58.353Z,83.70
2018-05-25T09:23:25.915Z,83.10
2018-05-25T09:25:53.538Z,82.40
2018-05-25T09:28:21.132Z,82.00
2018-05-25T09:30:48.710Z,82.00
2018-05-25T09:33:16.287Z,82.00
2018-05-25T09:35:43.852Z,82.20
2018-05-25T09:38:11.415Z,82.20
2018-05-25T09:40:39.799Z,80.60
2018-05-25T09:43:07.365Z,80.60
2018-05-25T09:45:34.929Z,80.00
2018-05-25T09:48:02.887Z,78.70
2018-05-25T09:50:30.451Z,77.50
2018-05-25T09:52:58.005Z,77.30
2018-05-25T09:55:26.184Z,77.20
2018-05-25T09:57:56.443Z,77.30
2018-05-25T10:00:26.457Z,77.30
2018-05-25T10:02:54.103Z,77.40
2018-05-25T10:05:21.670Z,77.40
2018-05-25T10:07:49.246Z,77.10
2018-05-25T10:10:16.871Z,76.40
2018-05-25T10:12:45.552Z,75.00
2018-05-25T10:15:13.099Z,74.80
2018-05-25T10:17:40.707Z,74.90
2018-05-25T10:20:08.269Z,74.40
2018-05-25T10:22:35.837Z,74.50
2018-05-25T10:25:03.449Z,74.70
2018-05-25T10:27:31.022Z,74.80
2018-05-25T10:29:58.588Z,74.40
2018-05-25T10:32:26.250Z,74.10
2018-05-25T10:34:53.809Z,73.40
2018-05-25T10:37:21.369Z,73.30
2018-05-25T10:39:48.967Z,73.70
2018-05-25T10:42:16.528Z,73.30
2018-05-25T10:44:44.090Z,72.90
2018-05-25T10:47:11.762Z,72.70
2018-05-25T10:49:40.128Z,72.40
2018-05-25T10:52:07.669Z,72.40
2018-05-25T10:54:35.273Z,72.20
2018-05-25T10:57:03.594Z,71.70
2018-05-25T10:59:31.153Z,71.70
2018-05-25T11:01:58.755Z,72.50
2018-05-25T11:04:26.312Z,71.20
2018-05-25T11:06:53.867Z,70.40
2018-05-25T11:09:21.981Z,69.40
2018-05-25T11:11:49.541Z,68.60
2018-05-25T11:14:17.112Z,66.70
2018-05-25T11:16:45.465Z,66.50
2018-05-25T11:19:13.791Z,65.60
2018-05-25T11:21:41.355Z,65.60
2018-05-25T11:24:09.330Z,64.50
2018-05-25T11:26:38.126Z,64.30
2018-05-25T11:29:05.683Z,64.90
2018-05-25T11:31:33.290Z,64.10
2018-05-25T11:34:01.611Z,62.40
2018-05-25T11:36:29.183Z,62.40
2018-05-25T11:38:56.782Z,62.60
2018-05-25T11:41:24.334Z,62.40
2018-05-25T11:43:51.896Z,62.00
2018-05-25T11:46:19.984Z,62.10
2018-05-25T11:48:48.296Z,60.30
2018-05-25T11:51:15.857Z,61.00
2018-05-25T11:53:43.458Z,61.10
2018-05-25T11:56:11.082Z,61.20
2018-05-25T11:58:38.640Z,60.40
2018-05-25T12:01:06.249Z,59.10
2018-05-25T12:03:33.804Z,58.90
2018-05-25T12:06:01.368Z,58.00
2018-05-25T12:08:28.961Z,55.40
2018-05-25T12:10:57.283Z,55.10
2018-05-25T12:13:24.844Z,55.10
2018-05-25T12:15:53.432Z,55.50
2018-05-25T12:18:20.982Z,55.80
2018-05-25T12:20:48.538Z,55.40
2018-05-25T12:23:17.037Z,55.30
2018-05-25T12:25:44.587Z,55.80
2018-05-25T12:28:12.144Z,55.40
2018-05-25T12:30:40.643Z,55.20
2018-05-25T12:33:08.198Z,55.00
2018-05-25T12:35:35.767Z,55.00
2018-05-25T12:38:03.369Z,55.70
2018-05-25T12:40:30.934Z,55.80
2018-05-25T12:42:58.478Z,55.30
2018-05-25T12:45:26.087Z,54.80
2018-05-25T12:47:53.655Z,54.50
2018-05-25T12:50:21.215Z,53.60
2018-05-25T12:52:49.739Z,53.40
2018-05-25T12:55:17.307Z,53.50
2018-05-25T12:57:44.865Z,53.20
2018-05-25T13:00:12.813Z,53.00
2018-05-25T13:02:40.373Z,53.10
2018-05-25T13:05:07.926Z,53.30
2018-05-25T13:07:35.561Z,53.00
2018-05-25T13:10:03.091Z,52.20
2018-05-25T13:12:30.651Z,52.20
2018-05-25T13:14:58.288Z,52.40
2018-05-25T13:17:25.847Z,50.80
2018-05-25T13:19:53.406Z,51.20
2018-05-25T13:22:21.041Z,51.00
2018-05-25T13:24:48.603Z,51.00
2018-05-25T13:27:16.199Z,50.80
2018-05-25T13:29:43.790Z,49.60
2018-05-25T13:32:11.355Z,48.20
2018-05-25T13:34:39.671Z,46.10
2018-05-25T13:37:07.281Z,46.00
2018-05-25T13:39:34.842Z,45.50
2018-05-25T13:42:02.397Z,44.80
2018-05-25T13:44:30.448Z,43.90
2018-05-25T13:46:58.010Z,43.30
2018-05-25T13:49:25.570Z,41.60
2018-05-25T13:51:53.172Z,41.00
2018-05-25T13:54:21.493Z,40.00
2018-05-25T13:56:49.044Z,40.00
2018-05-25T13:59:16.641Z,39.30
2018-05-25T14:01:44.193Z,40.60
2018-05-25T14:04:11.747Z,41.00
2018-05-25T14:06:39.797Z,40.80
2018-05-25T14:09:07.694Z,40.70
2018-05-25T14:11:35.244Z,40.10
2018-05-25T14:14:02.845Z,40.00
2018-05-25T14:16:30.411Z,40.00
2018-05-25T14:18:57.960Z,39.60
2018-05-25T14:21:25.570Z,39.20
2018-05-25T14:23:53.128Z,39.20
2018-05-25T14:26:20.683Z,39.80
2018-05-25T14:28:48.289Z,39.40
2018-05-25T14:31:15.847Z,39.30
2018-05-25T14:33:43.405Z,38.10
2018-05-25T14:36:11.883Z,37.70
2018-05-25T14:38:39.435Z,37.70
2018-05-25T14:41:06.989Z,38.80
2018-05-25T14:43:34.956Z,38.20
2018-05-25T14:46:02.512Z,38.30
2018-05-25T14:48:30.061Z,38.50
2018-05-25T14:50:58.067Z,38.10
2018-05-25T14:53:25.625Z,38.40
2018-05-25T14:55:53.183Z,37.80
2018-05-25T14:58:20.793Z,37.90
2018-05-25T15:00:48.347Z,37.40
2018-05-25T15:03:17.528Z,36.80
2018-05-25T15:05:43.956Z,37.00
2018-05-25T15:08:11.511Z,36.50
2018-05-25T15:10:39.065Z,36.50
2018-05-25T15:13:06.665Z,36.40
2018-05-25T15:15:34.220Z,36.10
2018-05-25T15:18:01.775Z,36.60
2018-05-25T15:20:29.368Z,34.70
2018-05-25T15:22:57.684Z,34.10
2018-05-25T15:25:25.235Z,34.00
2018-05-25T15:27:52.885Z,34.10
2018-05-25T15:30:20.439Z,33.30
2018-05-25T15:32:48.766Z,33.10
2018-05-25T15:35:16.380Z,33.00
2018-05-25T15:37:44.700Z,32.30
2018-05-25T15:40:12.256Z,32.30
2018-05-25T15:42:39.891Z,32.30
2018-05-25T15:45:07.449Z,32.40
2018-05-25T15:47:34.997Z,32.60
2018-05-25T15:50:03.371Z,34.10
2018-05-25T15:52:31.693Z,33.00
2018-05-25T15:54:59.241Z,33.00
2018-05-25T15:57:27.449Z,32.90
2018-05-25T15:59:55.007Z,32.90
2018-05-25T16:02:22.608Z,32.70
2018-05-25T16:04:51.048Z,32.50
2018-05-25T16:07:18.599Z,32.00
2018-05-25T16:09:46.154Z,32.10
2018-05-25T16:12:14.989Z,32.60
2018-05-25T16:14:42.531Z,32.50
2018-05-25T16:17:10.085Z,32.40
2018-05-25T16:19:37.680Z,31.80
2018-05-25T16:22:05.231Z,32.00
2018-05-25T16:24:32.786Z,32.20
2018-05-25T16:27:00.452Z,31.90
2018-05-25T16:29:27.980Z,30.00
2018-05-25T16:31:55.532Z,30.20
2018-05-25T16:34:23.135Z,30.90
2018-05-25T16:36:52.162Z,31.10
2018-05-25T16:39:20.479Z,31.00
2018-05-25T16:41:48.097Z,30.90
2018-05-25T16:44:16.419Z,31.20
2018-05-25T16:46:43.974Z,31.20
2018-05-25T16:49:12.167Z,31.10
2018-05-25T16:51:39.726Z,30.90
2018-05-25T16:54:07.291Z,30.50
2018-05-25T16:56:35.265Z,29.60
2018-05-25T16:59:02.819Z,29.80
2018-05-25T17:01:30.397Z,29.20
2018-05-25T17:03:58.551Z,28.20
2018-05-25T17:06:26.116Z,29.30
2018-05-25T17:08:53.672Z,29.80
2018-05-25T17:11:21.276Z,30.20
2018-05-25T17:13:48.824Z,30.30
2018-05-25T17:16:16.382Z,30.50
2018-05-25T17:18:43.995Z,30.40
2018-05-25T17:21:11.551Z,31.00
2018-05-25T17:23:39.099Z,30.90
2018-05-25T17:26:06.696Z,31.00
2018-05-25T17:28:34.250Z,31.50
2018-05-25T17:31:01.803Z,31.40
2018-05-25T17:33:29.406Z,31.50
2018-05-25T17:35:56.953Z,31.80
2018-05-25T17:38:24.503Z,32.00
2018-05-25T17:40:52.109Z,32.80
2018-05-25T17:43:19.659Z,33.90
2018-05-25T17:45:47.240Z,34.80
2018-05-25T17:48:15.615Z,37.20
2018-05-25T17:50:43.174Z,37.20
2018-05-25T17:53:10.723Z,37.60
2018-05-25T17:55:38.332Z,38.40
2018-05-25T17:58:05.887Z,39.30
2018-05-25T18:00:33.436Z,40.50
2018-05-25T18:03:02.496Z,40.60
2018-05-25T18:05:30.049Z,40.60
2018-05-25T18:07:57.603Z,41.00
2018-05-25T18:10:25.607Z,41.20
2018-05-25T18:12:53.121Z,41.50
2018-05-25T18:15:20.678Z,41.80
2018-05-25T18:17:48.278Z,42.00
2018-05-25T18:20:15.841Z,42.30
2018-05-25T18:22:43.400Z,42.70
2018-05-25T18:25:11.008Z,43.30
2018-05-25T18:27:38.563Z,43.30
2018-05-25T18:30:06.110Z,44.20
2018-05-25T18:32:34.518Z,45.00
2018-05-25T18:35:02.809Z,45.40
2018-05-25T18:37:30.367Z,45.40
2018-05-25T18:39:57.996Z,45.90
2018-05-25T18:42:26.328Z,46.70
2018-05-25T18:44:53.896Z,46.70
2018-05-25T18:47:21.494Z,47.10
2018-05-25T18:49:49.056Z,47.50
2018-05-25T18:52:17.377Z,48.70
2018-05-25T18:54:46.682Z,48.70
2018-05-25T18:57:14.242Z,49.10
2018-05-25T18:59:41.801Z,49.80
2018-05-25T19:02:09.403Z,50.60
2018-05-25T19:04:36.966Z,51.50
2018-05-25T19:07:04.513Z,52.10
2018-05-25T19:09:32.111Z,52.70
2018-05-25T19:11:59.661Z,53.70
2018-05-25T19:14:27.220Z,52.40
2018-05-25T19:16:54.833Z,52.00
2018-05-25T19:19:22.397Z,51.70
2018-05-25T19:21:49.946Z,52.50
2018-05-25T19:24:18.549Z,53.50
2018-05-25T19:26:46.107Z,53.90
2018-05-25T19:29:13.664Z,54.20
2018-05-25T19:31:42.179Z,54.60
2018-05-25T19:34:09.735Z,55.10
2018-05-25T19:36:37.299Z,55.60
2018-05-25T19:39:07.751Z,56.20
2018-05-25T19:41:36.076Z,56.70
2018-05-25T19:44:03.685Z,56.70
2018-05-25T19:46:31.234Z,56.90
2018-05-25T19:48:58.785Z,57.20
2018-05-25T19:51:26.337Z,57.50
2018-05-25T19:53:53.946Z,57.60
2018-05-25T19:56:21.506Z,57.70
2018-05-25T19:58:49.057Z,57.80
2018-05-25T20:01:17.455Z,58.60
2018-05-25T20:03:45.009Z,58.60
2018-05-25T20:06:12.565Z,58.90
2018-05-25T20:08:40.944Z,60.20
2018-05-25T20:11:09.276Z,60.80
2018-05-25T20:13:36.830Z,60.80
2018-05-25T20:16:04.442Z,61.40
2018-05-25T20:18:31.987Z,61.80
2018-05-25T20:20:59.537Z,62.20
2018-05-25T20:23:27.190Z,62.90
2018-05-25T20:25:54.746Z,63.50
2018-05-25T20:28:22.307Z,63.90
2018-05-25T20:30:49.931Z,64.40
2018-05-25T20:33:17.491Z,64.90
2018-05-25T20:35:45.057Z,65.40
2018-05-25T20:38:12.650Z,65.70
2018-05-25T20:40:40.222Z,66.20
2018-05-25T20:43:09.309Z,66.70
2018-05-25T20:45:36.907Z,67.30
2018-05-25T20:48:05.227Z,68.30
2018-05-25T20:50:32.784Z,68.30
2018-05-25T20:53:00.393Z,68.80
2018-05-25T20:55:27.962Z,69.20
2018-05-25T20:57:55.515Z,69.60
2018-05-25T21:00:23.134Z,71.20
2018-05-25T21:02:50.729Z,70.80
2018-05-25T21:05:18.252Z,71.60
2018-05-25T21:07:45.861Z,70.90
2018-05-25T21:10:13.417Z,70.80
2018-05-25T21:12:40.967Z,70.70
2018-05-25T21:15:09.144Z,69.70
2018-05-25T21:17:36.693Z,68.80
2018-05-25T21:20:04.251Z,68.50
2018-05-25T21:22:32.391Z,68.80
2018-05-25T21:24:59.968Z,69.80
2018-05-25T21:27:27.530Z,70.70
2018-05-25T21:29:55.127Z,71.50
2018-05-25T21:32:22.816Z,72.20
2018-05-25T21:34:50.371Z,72.50
2018-05-25T21:37:18.844Z,73.10
2018-05-25T21:39:46.384Z,73.50
2018-05-25T21:42:13.950Z,73.70
2018-05-25T21:44:41.543Z,74.40
2018-05-25T21:47:09.870Z,75.00
2018-05-25T21:49:37.426Z,75.70
2018-05-25T21:52:05.419Z,74.40
2018-05-25T21:54:32.965Z,74.80
2018-05-25T21:57:00.522Z,75.10
2018-05-25T21:59:29.120Z,75.40
2018-05-25T22:01:56.692Z,75.70
2018-05-25T22:04:24.252Z,76.20
2018-05-25T22:06:51.863Z,76.40
2018-05-25T22:09:19.421Z,77.50
2018-05-25T22:11:47.754Z,76.70
2018-05-25T22:14:15.404Z,76.60
2018-05-25T22:16:42.999Z,76.60
2018-05-25T22:19:10.531Z,76.80
2018-05-25T22:21:38.122Z,77.10
2018-05-25T22:24:05.682Z,77.40
2018-05-25T22:26:33.238Z,77.60
2018-05-25T22:29:01.134Z,78.00
2018-05-25T22:31:29.454Z,79.00
2018-05-25T22:33:57.009Z,78.90
2018-05-25T22:36:24.601Z,78.40
2018-05-25T22:38:52.161Z,78.70
2018-05-25T22:41:19.716Z,79.00
2018-05-25T22:44:26.128Z,79.40
2018-05-25T22:47:30.640Z,79.80
2018-05-25T22:50:35.360Z,80.10
2018-05-25T22:53:20.541Z,80.20
2018-05-25T22:55:48.131Z,80.40
2018-05-25T22:58:15.701Z,80.60
2018-05-25T23:00:43.253Z,81.10
2018-05-25T23:03:11.627Z,80.80
2018-05-25T23:05:39.949Z,80.80
2018-05-25T23:08:07.547Z,80.80
2018-05-25T23:10:35.141Z,81.00
2018-05-25T23:13:02.689Z,81.20
2018-05-25T23:15:31.013Z,81.60
2018-05-25T23:17:58.609Z,81.50
2018-05-25T23:20:26.168Z,81.60
2018-05-25T23:22:53.730Z,82.00
2018-05-25T23:25:21.335Z,82.20
2018-05-25T23:27:48.899Z,82.70
2018-05-25T23:30:16.455Z,82.30
2018-05-25T23:32:44.061Z,82.20
2018-05-25T23:35:11.617Z,82.20
2018-05-25T23:37:39.176Z,82.40
2018-05-25T23:40:09.518Z,82.50
2018-05-25T23:42:37.078Z,82.70
2018-05-25T23:45:04.643Z,82.80
2018-05-25T23:47:32.253Z,83.00
2018-05-25T23:49:59.816Z,83.10
2018-05-25T23:52:27.379Z,83.30
2018-05-25T23:54:54.966Z,83.50
2018-05-25T23:57:22.531Z,83.70
2018-05-25T23:59:50.086Z,83.90
